Kezdőlap
METAR-TAF:

METAR-TAF

Repülőterek :

Musi clinic

Mankayane, Szváziföld

földrajzi szélesség: 26-43-20S, földrajzi hosszúság: 30-54-44E, magasság: 956 m

Jelenlegi meteorológiai megfigyelések

A jelentés 2 órával és 23 perccel ezelõtt készült, 04:00 UTC
Észak-északkeleti szél 1 kt
Hőmérséklet 8°C
Páratartalom 93%
Légköri nyomás 991 hPa

METAR: FDUS 160400Z AUTO 03001KT //// // ////// 08/07 Q0991

Idő: 08:23 (06:23 UTC)


TAF: hiányzik

Meteorológiai megfigyelések és előrejelzések több, mint 4000 repülőtéren (METAR és TAF jelentéseket).

A térképen piros és sárga pontok jelzik az elérhető meteorológiai állomásokat.

Mozgassa az egeret a pont fölött, hogy megjelenjen az állomás neve.

Azután kattintson az időjárási megfigyelések és előrejelzések megtekintéséhez.

A térkép megváltoztatása: kattintson a fekete keresztel jelölt zöld gombra ráközelítéshez, a vonallal jelölt zöld gombra távolításhoz, vagy a zöld nyilakra a szomszédos térképek eléréséhez.


METAR-TAF: